createdAt,value
2018-12-10T00:00:45.397Z,0.00
2018-12-10T00:01:45.363Z,0.00
2018-12-10T00:02:46.228Z,0.00
2018-12-10T00:03:45.298Z,0.00
2018-12-10T00:04:45.259Z,0.00
2018-12-10T00:05:45.227Z,0.00
2018-12-10T00:06:45.192Z,0.00
2018-12-10T00:07:45.156Z,0.00
2018-12-10T00:08:45.121Z,0.00
2018-12-10T00:09:45.089Z,0.00
2018-12-10T00:10:45.055Z,0.00
2018-12-10T00:11:45.020Z,0.00
2018-12-10T00:12:44.986Z,0.00
2018-12-10T00:13:44.952Z,0.00
2018-12-10T00:14:44.918Z,0.00
2018-12-10T00:15:44.884Z,0.00
2018-12-10T00:16:44.849Z,0.00
2018-12-10T00:17:44.814Z,0.00
2018-12-10T00:18:44.782Z,0.00
2018-12-10T00:19:44.749Z,0.00
2018-12-10T00:20:44.714Z,0.00
2018-12-10T00:21:44.678Z,0.00
2018-12-10T00:22:44.645Z,0.00
2018-12-10T00:23:44.608Z,0.00
2018-12-10T00:24:44.576Z,0.00
2018-12-10T00:25:44.541Z,0.00
2018-12-10T00:26:44.508Z,0.00
2018-12-10T00:27:44.474Z,0.00
2018-12-10T00:28:44.438Z,0.00
2018-12-10T00:29:44.406Z,0.00
2018-12-10T00:30:44.371Z,0.00
2018-12-10T00:31:44.336Z,0.00
2018-12-10T00:32:44.302Z,0.00
2018-12-10T00:33:44.269Z,0.00
2018-12-10T00:34:44.233Z,0.00
2018-12-10T00:35:44.199Z,0.00
2018-12-10T00:36:44.168Z,0.00
2018-12-10T00:37:44.129Z,0.00
2018-12-10T00:38:44.096Z,0.00
2018-12-10T00:39:44.061Z,0.00
2018-12-10T00:40:44.033Z,0.00
2018-12-10T00:41:43.995Z,0.00
2018-12-10T00:42:43.963Z,0.00
2018-12-10T00:43:43.924Z,0.00
2018-12-10T00:44:43.892Z,0.00
2018-12-10T00:45:43.859Z,0.00
2018-12-10T00:46:43.823Z,0.00
2018-12-10T00:47:43.792Z,0.00
2018-12-10T00:48:43.754Z,0.00
2018-12-10T00:49:43.721Z,0.00
2018-12-10T00:50:43.686Z,0.00
2018-12-10T00:51:43.653Z,0.00
2018-12-10T00:52:43.617Z,0.00
2018-12-10T00:53:43.584Z,0.00
2018-12-10T00:54:43.549Z,0.00
2018-12-10T00:55:43.514Z,0.00
2018-12-10T00:56:43.484Z,0.00
2018-12-10T00:57:43.447Z,0.00
2018-12-10T00:58:43.412Z,0.00
2018-12-10T00:59:43.378Z,0.00
2018-12-10T01:00:43.343Z,0.00
2018-12-10T01:01:43.311Z,0.00
2018-12-10T01:02:43.275Z,0.00
2018-12-10T01:03:43.240Z,0.00
2018-12-10T01:04:43.206Z,0.00
2018-12-10T01:05:43.188Z,0.00
2018-12-10T01:06:43.138Z,0.00
2018-12-10T01:07:43.106Z,0.00
2018-12-10T01:08:43.070Z,0.00
2018-12-10T01:09:43.037Z,0.00
2018-12-10T01:10:43.002Z,0.00
2018-12-10T01:11:42.966Z,0.00
2018-12-10T01:12:42.932Z,0.00
2018-12-10T01:13:42.898Z,0.00
2018-12-10T01:14:42.865Z,0.00
2018-12-10T01:15:42.829Z,0.00
2018-12-10T01:16:42.795Z,0.00
2018-12-10T01:17:42.761Z,0.00
2018-12-10T01:18:42.728Z,0.00
2018-12-10T01:19:42.693Z,0.00
2018-12-10T01:20:42.660Z,0.00
2018-12-10T01:21:42.625Z,0.00
2018-12-10T01:22:42.592Z,0.00
2018-12-10T01:23:42.556Z,0.00
2018-12-10T01:24:42.521Z,0.00
2018-12-10T01:25:42.487Z,0.00
2018-12-10T01:26:42.454Z,0.00
2018-12-10T01:27:42.418Z,0.00
2018-12-10T01:28:42.387Z,0.00
2018-12-10T01:29:42.354Z,0.00
2018-12-10T01:30:42.316Z,0.00
2018-12-10T01:31:42.281Z,0.00
2018-12-10T01:32:42.249Z,0.00
2018-12-10T01:33:42.215Z,0.00
2018-12-10T01:34:42.180Z,0.00
2018-12-10T01:35:42.145Z,0.00
2018-12-10T01:36:42.111Z,0.00
2018-12-10T01:37:42.079Z,0.00
2018-12-10T01:38:42.045Z,0.00
2018-12-10T01:39:42.009Z,0.00
2018-12-10T01:40:41.976Z,0.00
2018-12-10T01:41:43.320Z,0.00
2018-12-10T01:42:41.907Z,0.00
2018-12-10T01:43:41.873Z,0.00
2018-12-10T01:44:41.838Z,0.00
2018-12-10T01:45:41.807Z,0.00
2018-12-10T01:46:41.770Z,0.00
2018-12-10T01:47:41.738Z,0.00
2018-12-10T01:48:41.703Z,0.00
2018-12-10T01:49:41.667Z,0.00
2018-12-10T01:50:41.633Z,0.00
2018-12-10T01:51:41.598Z,0.00
2018-12-10T01:52:41.564Z,0.00
2018-12-10T01:53:41.533Z,0.00
2018-12-10T01:54:41.499Z,0.00
2018-12-10T01:55:41.461Z,0.00
2018-12-10T01:56:41.427Z,0.00
2018-12-10T01:57:41.393Z,0.00
2018-12-10T01:58:41.363Z,0.00
2018-12-10T01:59:41.326Z,0.00
2018-12-10T02:00:41.291Z,0.00
2018-12-10T02:01:41.255Z,0.00
2018-12-10T02:02:41.222Z,0.00
2018-12-10T02:03:41.186Z,0.00
2018-12-10T02:04:41.152Z,0.00
2018-12-10T02:05:41.122Z,0.00
2018-12-10T02:06:41.085Z,0.00
2018-12-10T02:07:41.051Z,0.00
2018-12-10T02:08:41.015Z,0.00
2018-12-10T02:09:40.982Z,0.00
2018-12-10T02:10:40.947Z,0.00
2018-12-10T02:11:40.912Z,0.00
2018-12-10T02:12:40.880Z,0.00
2018-12-10T02:13:40.845Z,0.00
2018-12-10T02:14:40.810Z,0.00
2018-12-10T02:15:40.774Z,0.00
2018-12-10T02:16:40.747Z,0.00
2018-12-10T02:17:40.707Z,0.00
2018-12-10T02:18:40.673Z,0.00
2018-12-10T02:19:41.458Z,0.00
2018-12-10T02:20:40.605Z,0.00
2018-12-10T02:21:40.568Z,0.00
2018-12-10T02:22:40.535Z,0.00
2018-12-10T02:23:40.500Z,0.00
2018-12-10T02:24:40.464Z,0.00
2018-12-10T02:25:40.431Z,0.00
2018-12-10T02:26:40.396Z,0.00
2018-12-10T02:27:40.362Z,0.00
2018-12-10T02:28:40.328Z,0.00
2018-12-10T02:29:40.295Z,0.00
2018-12-10T02:30:40.261Z,0.00
2018-12-10T02:31:40.226Z,0.00
2018-12-10T02:32:40.192Z,0.00
2018-12-10T02:33:40.159Z,0.00
2018-12-10T02:34:40.124Z,0.00
2018-12-10T02:35:40.087Z,0.00
2018-12-10T02:36:40.055Z,0.00
2018-12-10T02:37:40.021Z,0.00
2018-12-10T02:38:39.986Z,0.00
2018-12-10T02:39:39.952Z,0.00
2018-12-10T02:40:39.918Z,0.00
2018-12-10T02:41:39.884Z,0.00
2018-12-10T02:42:39.848Z,0.00
2018-12-10T02:43:39.814Z,0.00
2018-12-10T02:44:39.781Z,0.00
2018-12-10T02:45:39.746Z,0.00
2018-12-10T02:46:39.712Z,0.00
2018-12-10T02:47:39.677Z,0.00
2018-12-10T02:48:39.647Z,0.00
2018-12-10T02:49:39.608Z,0.00
2018-12-10T02:50:39.582Z,0.00
2018-12-10T02:51:39.542Z,0.00
2018-12-10T02:52:39.503Z,0.00
2018-12-10T02:53:39.469Z,0.00
2018-12-10T02:54:39.437Z,0.00
2018-12-10T02:55:39.401Z,0.00
2018-12-10T02:56:39.370Z,0.00
2018-12-10T02:57:39.332Z,0.00
2018-12-10T02:58:39.298Z,0.00
2018-12-10T02:59:39.264Z,0.00
2018-12-10T03:00:39.229Z,0.00
2018-12-10T03:01:39.195Z,0.00
2018-12-10T03:02:39.163Z,0.00
2018-12-10T03:03:39.125Z,0.00
2018-12-10T03:04:39.089Z,0.00
2018-12-10T03:05:39.055Z,0.00
2018-12-10T03:06:39.021Z,0.00
2018-12-10T03:07:38.994Z,0.00
2018-12-10T03:08:38.954Z,0.00
2018-12-10T03:09:38.919Z,0.00
2018-12-10T03:10:38.884Z,0.00
2018-12-10T03:11:38.851Z,0.00
2018-12-10T03:12:38.816Z,0.00
2018-12-10T03:13:38.781Z,0.00
2018-12-10T03:14:38.747Z,0.00
2018-12-10T03:15:38.712Z,0.00
2018-12-10T03:16:38.680Z,0.00
2018-12-10T03:17:38.643Z,0.00
2018-12-10T03:18:38.610Z,0.00
2018-12-10T03:19:38.575Z,0.00
2018-12-10T03:20:38.539Z,0.00
2018-12-10T03:21:38.507Z,0.00
2018-12-10T03:22:38.476Z,0.00
2018-12-10T03:23:38.440Z,0.00
2018-12-10T03:24:38.403Z,0.00
2018-12-10T03:25:38.369Z,0.00
2018-12-10T03:26:38.334Z,0.00
2018-12-10T03:27:38.300Z,0.00
2018-12-10T03:28:38.376Z,0.00
2018-12-10T03:29:38.236Z,0.00
2018-12-10T03:30:38.198Z,0.00
2018-12-10T03:31:38.163Z,0.00
2018-12-10T03:32:38.128Z,0.00
2018-12-10T03:33:38.143Z,0.00
2018-12-10T03:34:38.064Z,0.00
2018-12-10T03:35:38.024Z,0.00
2018-12-10T03:36:38.140Z,0.00
2018-12-10T03:37:37.956Z,0.00
2018-12-10T03:38:37.921Z,0.00
2018-12-10T03:39:37.887Z,0.00
2018-12-10T03:40:37.851Z,0.00
2018-12-10T03:41:37.817Z,0.00
2018-12-10T03:42:37.782Z,0.00
2018-12-10T03:43:37.747Z,0.00
2018-12-10T03:44:37.712Z,0.00
2018-12-10T03:45:37.677Z,0.00
2018-12-10T03:46:37.647Z,0.00
2018-12-10T03:47:37.607Z,0.00
2018-12-10T03:48:37.574Z,0.00
2018-12-10T03:49:37.545Z,0.00
2018-12-10T03:50:37.508Z,0.00
2018-12-10T03:51:37.470Z,0.00
2018-12-10T03:52:37.435Z,0.00
2018-12-10T03:53:37.399Z,0.00
2018-12-10T03:54:37.366Z,0.00
2018-12-10T03:55:37.331Z,0.00
2018-12-10T03:56:37.299Z,0.00
2018-12-10T03:57:37.264Z,0.00
2018-12-10T03:58:37.229Z,0.00
2018-12-10T03:59:37.192Z,0.00
2018-12-10T04:00:37.161Z,0.00
2018-12-10T04:01:37.124Z,0.00
2018-12-10T04:02:37.088Z,0.00
2018-12-10T04:03:37.060Z,0.00
2018-12-10T04:04:37.020Z,0.00
2018-12-10T04:05:36.986Z,0.00
2018-12-10T04:06:36.951Z,0.00
2018-12-10T04:07:36.919Z,0.00
2018-12-10T04:08:36.881Z,0.00
2018-12-10T04:09:36.848Z,0.00
2018-12-10T04:10:36.812Z,0.00
2018-12-10T04:11:36.804Z,0.00
2018-12-10T04:12:36.747Z,0.00
2018-12-10T04:13:36.711Z,0.00
2018-12-10T04:14:36.675Z,0.00
2018-12-10T04:15:36.639Z,0.00
2018-12-10T04:16:36.604Z,0.00
2018-12-10T04:17:36.571Z,0.00
2018-12-10T04:18:36.537Z,0.00
2018-12-10T04:19:36.502Z,0.00
2018-12-10T04:20:36.468Z,0.00
2018-12-10T04:21:36.440Z,0.00
2018-12-10T04:22:36.399Z,0.00
2018-12-10T04:23:36.363Z,0.00
2018-12-10T04:24:36.330Z,0.00
2018-12-10T04:25:36.295Z,0.00
2018-12-10T04:26:36.263Z,0.00
2018-12-10T04:27:36.226Z,0.00
2018-12-10T04:28:36.193Z,0.00
2018-12-10T04:29:36.157Z,0.00
2018-12-10T04:30:36.128Z,0.00
2018-12-10T04:31:36.439Z,0.00
2018-12-10T04:32:36.054Z,0.00
2018-12-10T04:33:36.020Z,0.00
2018-12-10T04:34:35.987Z,0.00
2018-12-10T04:35:35.951Z,0.00
2018-12-10T04:36:35.915Z,0.00
2018-12-10T04:37:35.883Z,0.00
2018-12-10T04:38:35.849Z,0.00
2018-12-10T04:39:35.811Z,0.00
2018-12-10T04:40:35.778Z,0.00
2018-12-10T04:41:35.744Z,0.00
2018-12-10T04:42:35.710Z,0.00
2018-12-10T04:43:35.676Z,0.00
2018-12-10T04:44:35.641Z,0.00
2018-12-10T04:45:35.608Z,0.00
2018-12-10T04:46:35.574Z,0.00
2018-12-10T04:47:35.539Z,0.00
2018-12-10T04:48:35.507Z,0.00
2018-12-10T04:49:35.471Z,0.00
2018-12-10T04:50:35.436Z,0.00
2018-12-10T04:51:35.402Z,0.00
2018-12-10T04:52:35.369Z,0.00
2018-12-10T04:53:35.334Z,0.00
2018-12-10T04:54:35.300Z,0.00
2018-12-10T04:55:35.263Z,0.00
2018-12-10T04:56:35.230Z,0.00
2018-12-10T04:57:35.194Z,0.00
2018-12-10T04:58:35.160Z,0.00
2018-12-10T04:59:35.126Z,0.00
2018-12-10T05:00:35.092Z,0.00
2018-12-10T05:01:35.056Z,0.00
2018-12-10T05:02:35.022Z,0.00
2018-12-10T05:03:34.986Z,0.00
2018-12-10T05:04:34.952Z,0.00
2018-12-10T05:05:34.919Z,0.00
2018-12-10T05:06:34.882Z,0.00
2018-12-10T05:07:34.849Z,0.00
2018-12-10T05:08:34.816Z,0.00
2018-12-10T05:09:34.780Z,0.00
2018-12-10T05:10:34.745Z,0.00
2018-12-10T05:11:34.709Z,0.00
2018-12-10T05:12:34.676Z,0.00
2018-12-10T05:13:34.639Z,0.00
2018-12-10T05:14:34.664Z,0.00
2018-12-10T05:15:34.570Z,0.00
2018-12-10T05:16:34.536Z,0.00
2018-12-10T05:17:34.503Z,0.00
2018-12-10T05:18:34.469Z,0.00
2018-12-10T05:19:34.430Z,0.00
2018-12-10T05:20:34.397Z,0.00
2018-12-10T05:21:34.363Z,0.00
2018-12-10T05:22:34.329Z,0.00
2018-12-10T05:23:34.292Z,0.00
2018-12-10T05:24:34.258Z,0.00
2018-12-10T05:25:34.223Z,0.00
2018-12-10T05:26:34.187Z,0.00
2018-12-10T05:27:34.152Z,0.00
2018-12-10T05:28:34.120Z,0.00
2018-12-10T05:29:34.083Z,0.00
2018-12-10T05:30:34.048Z,0.00
2018-12-10T05:31:34.013Z,0.00
2018-12-10T05:32:33.979Z,0.00
2018-12-10T05:33:33.945Z,0.00
2018-12-10T05:34:33.910Z,0.00
2018-12-10T05:35:33.875Z,0.00
2018-12-10T05:36:33.839Z,0.00
2018-12-10T05:37:33.805Z,0.00
2018-12-10T05:38:33.770Z,0.00
2018-12-10T05:39:33.735Z,0.00
2018-12-10T05:40:33.700Z,0.00
2018-12-10T05:41:33.664Z,0.00
2018-12-10T05:42:33.632Z,0.00
2018-12-10T05:43:33.596Z,0.00
2018-12-10T05:44:33.565Z,0.00
2018-12-10T05:45:33.527Z,0.00
2018-12-10T05:46:33.493Z,0.00
2018-12-10T05:47:33.457Z,0.00
2018-12-10T05:48:33.422Z,0.00
2018-12-10T05:49:33.389Z,0.00
2018-12-10T05:50:33.353Z,0.00
2018-12-10T05:51:33.320Z,0.00
2018-12-10T05:52:33.282Z,0.00
2018-12-10T05:53:33.250Z,0.00
2018-12-10T05:54:33.213Z,0.00
2018-12-10T05:55:33.181Z,0.00
2018-12-10T05:56:33.143Z,0.00
2018-12-10T05:57:33.108Z,0.00
2018-12-10T05:58:33.073Z,0.00
2018-12-10T05:59:33.037Z,0.00
2018-12-10T06:00:33.003Z,0.00
2018-12-10T06:01:32.968Z,0.00
2018-12-10T06:02:32.934Z,0.00
2018-12-10T06:03:32.899Z,0.00
2018-12-10T06:04:32.863Z,0.00
2018-12-10T06:05:32.829Z,0.00
2018-12-10T06:06:32.797Z,0.00
2018-12-10T06:07:32.759Z,0.00
2018-12-10T06:08:32.723Z,0.00
2018-12-10T06:09:32.690Z,0.00
2018-12-10T06:10:32.656Z,0.00
2018-12-10T06:11:32.620Z,0.00
2018-12-10T06:12:32.584Z,0.00
2018-12-10T06:13:32.554Z,0.00
2018-12-10T06:14:32.517Z,0.00
2018-12-10T06:15:32.481Z,0.00
2018-12-10T06:16:32.445Z,0.00
2018-12-10T06:17:32.411Z,0.00
2018-12-10T06:18:32.377Z,0.00
2018-12-10T06:19:32.341Z,0.00
2018-12-10T06:20:32.306Z,0.00
2018-12-10T06:21:32.271Z,0.00
2018-12-10T06:22:32.237Z,0.00
2018-12-10T06:23:32.200Z,0.00
2018-12-10T06:24:32.168Z,0.00
2018-12-10T06:25:32.131Z,0.00
2018-12-10T06:26:32.100Z,0.00
2018-12-10T06:27:32.060Z,0.00
2018-12-10T06:28:32.025Z,0.00
2018-12-10T06:29:31.992Z,0.00
2018-12-10T06:30:31.957Z,0.00
2018-12-10T06:31:31.920Z,0.00
2018-12-10T06:32:31.888Z,0.00
2018-12-10T06:33:31.850Z,4.00
2018-12-10T06:34:31.817Z,4.00
2018-12-10T06:35:31.780Z,0.00
2018-12-10T06:36:31.745Z,4.00
2018-12-10T06:37:37.539Z,4.00
2018-12-10T06:38:31.675Z,4.00
2018-12-10T06:39:31.640Z,4.00
2018-12-10T06:40:31.606Z,4.00
2018-12-10T06:41:31.571Z,4.00
2018-12-10T06:42:31.535Z,4.00
2018-12-10T06:43:31.500Z,8.00
2018-12-10T06:44:31.466Z,12.00
2018-12-10T06:45:31.432Z,12.00
2018-12-10T06:46:31.396Z,12.00
2018-12-10T06:47:31.360Z,16.00
2018-12-10T06:48:31.440Z,20.00
2018-12-10T06:49:31.290Z,20.00
2018-12-10T06:50:31.257Z,28.00
2018-12-10T06:51:31.221Z,28.00
2018-12-10T06:52:31.185Z,32.00
2018-12-10T06:53:31.152Z,36.00
2018-12-10T06:54:31.117Z,40.00
2018-12-10T06:55:31.084Z,44.00
2018-12-10T06:56:31.046Z,48.00
2018-12-10T06:57:31.018Z,56.00
2018-12-10T06:58:30.977Z,64.00
2018-12-10T06:59:30.943Z,76.00
2018-12-10T07:00:30.909Z,84.00
2018-12-10T07:01:30.872Z,108.00
2018-12-10T07:02:30.838Z,116.00
2018-12-10T07:03:30.801Z,128.00
2018-12-10T07:04:30.769Z,152.00
2018-12-10T07:05:30.733Z,172.00
2018-12-10T07:06:30.699Z,196.00
2018-12-10T07:07:30.667Z,220.00
2018-12-10T07:08:30.629Z,240.00
2018-12-10T07:09:30.594Z,264.00
2018-12-10T07:10:30.559Z,288.00
2018-12-10T07:11:30.525Z,316.00
2018-12-10T07:12:30.590Z,344.00
2018-12-10T07:13:30.454Z,376.00
2018-12-10T07:14:30.419Z,400.00
2018-12-10T07:15:30.384Z,428.00
2018-12-10T07:16:30.350Z,468.00
2018-12-10T07:17:30.315Z,504.00
2018-12-10T07:18:30.281Z,532.00
2018-12-10T07:19:30.250Z,548.00
2018-12-10T07:20:30.210Z,572.00
2018-12-10T07:21:30.174Z,608.00
2018-12-10T07:22:30.142Z,652.00
2018-12-10T07:23:30.107Z,696.00
2018-12-10T07:24:30.071Z,740.00
2018-12-10T07:25:30.036Z,780.00
2018-12-10T07:26:30.001Z,824.00
2018-12-10T07:27:29.965Z,864.00
2018-12-10T07:28:29.931Z,912.00
2018-12-10T07:29:29.897Z,960.00
2018-12-10T07:30:29.860Z,1012.00
2018-12-10T07:31:29.825Z,1068.00
2018-12-10T07:32:29.791Z,1128.00
2018-12-10T07:33:29.755Z,1184.00
2018-12-10T07:34:29.721Z,1248.00
2018-12-10T07:35:29.685Z,1312.00
2018-12-10T07:36:29.653Z,1364.00
2018-12-10T07:37:29.616Z,1416.00
2018-12-10T07:38:29.580Z,1468.00
2018-12-10T07:39:29.545Z,1524.00
2018-12-10T07:40:29.509Z,1572.00
2018-12-10T07:41:29.475Z,1636.00
2018-12-10T07:42:29.440Z,1704.00
2018-12-10T07:43:29.462Z,1804.00
2018-12-10T07:44:29.370Z,1912.00
2018-12-10T07:45:29.336Z,1932.00
2018-12-10T07:46:29.299Z,1984.00
2018-12-10T07:47:29.268Z,2032.00
2018-12-10T07:48:29.228Z,2044.00
2018-12-10T07:49:29.196Z,2080.00
2018-12-10T07:50:29.171Z,2144.00
2018-12-10T07:51:29.123Z,2212.00
2018-12-10T07:52:29.088Z,2284.00
2018-12-10T07:53:29.054Z,2356.00
2018-12-10T07:54:29.020Z,2400.00
2018-12-10T07:55:28.984Z,2472.00
2018-12-10T07:56:29.307Z,2564.00
2018-12-10T07:57:28.913Z,2668.00
2018-12-10T07:58:28.879Z,2828.00
2018-12-10T07:59:28.844Z,3084.00
2018-12-10T08:00:28.811Z,3540.00
2018-12-10T08:01:28.773Z,4060.00
2018-12-10T08:02:28.738Z,4316.00
2018-12-10T08:03:28.703Z,4244.00
2018-12-10T08:04:28.667Z,4088.00
2018-12-10T08:05:28.634Z,3868.00
2018-12-10T08:06:28.598Z,3592.00
2018-12-10T08:07:28.584Z,3404.00
2018-12-10T08:08:28.529Z,3332.00
2018-12-10T08:09:28.494Z,3308.00
2018-12-10T08:10:28.462Z,3424.00
2018-12-10T08:11:28.427Z,4096.00
2018-12-10T08:12:28.389Z,4660.00
2018-12-10T08:13:28.354Z,4372.00
2018-12-10T08:14:28.323Z,4012.00
2018-12-10T08:15:28.285Z,3856.00
2018-12-10T08:16:28.252Z,3704.00
2018-12-10T08:17:28.216Z,3488.00
2018-12-10T08:18:28.181Z,3324.00
2018-12-10T08:19:28.145Z,3316.00
2018-12-10T08:20:28.114Z,3384.00
2018-12-10T08:21:28.077Z,3516.00
2018-12-10T08:22:28.042Z,3780.00
2018-12-10T08:23:28.024Z,4252.00
2018-12-10T08:24:27.971Z,5276.00
2018-12-10T08:25:27.941Z,6820.00
2018-12-10T08:26:27.904Z,6680.00
2018-12-10T08:27:27.869Z,5616.00
2018-12-10T08:28:27.833Z,4732.00
2018-12-10T08:29:27.798Z,4300.00
2018-12-10T08:30:27.763Z,4380.00
2018-12-10T08:31:27.729Z,4256.00
2018-12-10T08:32:27.701Z,4548.00
2018-12-10T08:33:27.667Z,4228.00
2018-12-10T08:34:27.625Z,3932.00
2018-12-10T08:35:27.589Z,4008.00
2018-12-10T08:36:27.555Z,4856.00
2018-12-10T08:37:27.520Z,5396.00
2018-12-10T08:38:27.488Z,5064.00
2018-12-10T08:39:27.452Z,4500.00
2018-12-10T08:40:27.421Z,4736.00
2018-12-10T08:41:27.384Z,5004.00
2018-12-10T08:42:27.350Z,4644.00
2018-12-10T08:43:27.313Z,4716.00
2018-12-10T08:44:27.278Z,4868.00
2018-12-10T08:45:27.243Z,4856.00
2018-12-10T08:46:27.210Z,4836.00
2018-12-10T08:47:27.174Z,4820.00
2018-12-10T08:48:27.139Z,4820.00
2018-12-10T08:49:27.105Z,5092.00
2018-12-10T08:50:27.074Z,5192.00
2018-12-10T08:51:27.035Z,6116.00
2018-12-10T08:52:27.002Z,6320.00
2018-12-10T08:53:26.967Z,5388.00
2018-12-10T08:54:26.932Z,6288.00
2018-12-10T08:55:26.897Z,6668.00
2018-12-10T08:56:26.863Z,7400.00
2018-12-10T08:57:26.830Z,7224.00
2018-12-10T08:58:26.794Z,7116.00
2018-12-10T08:59:26.760Z,7148.00
2018-12-10T09:00:26.726Z,7216.00
2018-12-10T09:01:26.693Z,7436.00
2018-12-10T09:02:26.658Z,7028.00
2018-12-10T09:03:26.624Z,7612.00
2018-12-10T09:04:26.590Z,7316.00
2018-12-10T09:05:26.559Z,7148.00
2018-12-10T09:06:26.522Z,10044.00
2018-12-10T09:07:26.488Z,8368.00
2018-12-10T09:08:26.455Z,7436.00
2018-12-10T09:09:26.421Z,5528.00
2018-12-10T09:10:26.387Z,5884.00
2018-12-10T09:11:26.353Z,5644.00
2018-12-10T09:12:26.319Z,6812.00
2018-12-10T09:13:26.286Z,5180.00
2018-12-10T09:14:26.253Z,4940.00
2018-12-10T09:15:26.218Z,4908.00
2018-12-10T09:16:26.184Z,4800.00
2018-12-10T09:17:26.150Z,5024.00
2018-12-10T09:18:26.115Z,5120.00
2018-12-10T09:19:26.083Z,5076.00
2018-12-10T09:20:26.049Z,5412.00
2018-12-10T09:21:26.014Z,5776.00
2018-12-10T09:22:25.981Z,5688.00
2018-12-10T09:23:25.947Z,5916.00
2018-12-10T09:24:25.913Z,6068.00
2018-12-10T09:25:26.368Z,6300.00
2018-12-10T09:26:25.844Z,6408.00
2018-12-10T09:27:25.810Z,5940.00
2018-12-10T09:28:25.776Z,5824.00
2018-12-10T09:29:25.782Z,5552.00
2018-12-10T09:30:25.708Z,5556.00
2018-12-10T09:31:25.673Z,6004.00
2018-12-10T09:32:25.641Z,6264.00
2018-12-10T09:33:25.610Z,5984.00
2018-12-10T09:34:25.579Z,6300.00
2018-12-10T09:35:25.538Z,6440.00
2018-12-10T09:36:25.505Z,6072.00
2018-12-10T09:37:25.470Z,6076.00
2018-12-10T09:38:25.436Z,6080.00
2018-12-10T09:39:25.402Z,6108.00
2018-12-10T09:40:25.370Z,6160.00
2018-12-10T09:41:25.336Z,6236.00
2018-12-10T09:42:25.305Z,6264.00
2018-12-10T09:43:25.269Z,6268.00
2018-12-10T09:44:25.237Z,6324.00
2018-12-10T09:45:25.202Z,6340.00
2018-12-10T09:46:27.629Z,6324.00
2018-12-10T09:47:25.134Z,6320.00
2018-12-10T09:48:25.101Z,6348.00
2018-12-10T09:49:25.069Z,6344.00
2018-12-10T09:50:25.035Z,6420.00
2018-12-10T09:51:25.002Z,6576.00
2018-12-10T09:52:24.970Z,6500.00
2018-12-10T09:53:24.937Z,6820.00
2018-12-10T09:54:24.903Z,6228.00
2018-12-10T09:55:24.871Z,5920.00
2018-12-10T09:56:24.838Z,6284.00
2018-12-10T09:57:24.851Z,6604.00
2018-12-10T09:58:24.772Z,6616.00
2018-12-10T09:59:24.738Z,6840.00
2018-12-10T10:00:24.706Z,6752.00
2018-12-10T10:01:26.114Z,6972.00
2018-12-10T10:02:24.642Z,7112.00
2018-12-10T10:03:24.606Z,6704.00
2018-12-10T10:04:24.575Z,7052.00
2018-12-10T10:05:24.542Z,6692.00
2018-12-10T10:06:24.509Z,6524.00
2018-12-10T10:07:28.413Z,6404.00
2018-12-10T10:08:24.444Z,6444.00
2018-12-10T10:09:24.413Z,6336.00
2018-12-10T10:10:24.378Z,6436.00
2018-12-10T10:11:24.347Z,6500.00
2018-12-10T10:12:24.313Z,6888.00
2018-12-10T10:13:24.280Z,6924.00
2018-12-10T10:14:24.248Z,7936.00
2018-12-10T10:15:24.218Z,8800.00
2018-12-10T10:16:24.180Z,7084.00
2018-12-10T10:17:24.152Z,7500.00
2018-12-10T10:18:24.117Z,8288.00
2018-12-10T10:19:24.082Z,8404.00
2018-12-10T10:20:24.050Z,7844.00
2018-12-10T10:21:24.018Z,7196.00
2018-12-10T10:22:23.986Z,7288.00
2018-12-10T10:23:23.951Z,10412.00
2018-12-10T10:24:23.924Z,16736.00
2018-12-10T10:25:23.887Z,12492.00
2018-12-10T10:26:23.854Z,10296.00
2018-12-10T10:27:23.822Z,6956.00
2018-12-10T10:28:23.790Z,7524.00
2018-12-10T10:29:23.755Z,9440.00
2018-12-10T10:30:23.722Z,7736.00
2018-12-10T10:31:23.690Z,8036.00
2018-12-10T10:32:23.656Z,10028.00
2018-12-10T10:33:32.156Z,11412.00
2018-12-10T10:34:23.592Z,12736.00
2018-12-10T10:35:23.559Z,11360.00
2018-12-10T10:36:23.525Z,12204.00
2018-12-10T10:37:23.493Z,9984.00
2018-12-10T10:38:23.458Z,7672.00
2018-12-10T10:39:23.425Z,10200.00
2018-12-10T10:40:23.393Z,9936.00
2018-12-10T10:41:31.121Z,8600.00
2018-12-10T10:42:23.326Z,9440.00
2018-12-10T10:43:23.295Z,11588.00
2018-12-10T10:44:23.259Z,12104.00
2018-12-10T10:45:23.227Z,12684.00
2018-12-10T10:46:23.192Z,15592.00
2018-12-10T10:47:23.158Z,15308.00
2018-12-10T10:48:23.125Z,10556.00
2018-12-10T10:49:23.092Z,7912.00
2018-12-10T10:50:23.059Z,5560.00
2018-12-10T10:51:23.025Z,5056.00
2018-12-10T10:52:22.991Z,5204.00
2018-12-10T10:53:22.959Z,6080.00
2018-12-10T10:54:22.925Z,6388.00
2018-12-10T10:55:22.891Z,6252.00
2018-12-10T10:56:22.857Z,5688.00
2018-12-10T10:57:22.824Z,5440.00
2018-12-10T10:58:22.792Z,4288.00
2018-12-10T10:59:22.757Z,3632.00
2018-12-10T11:00:22.725Z,3908.00
2018-12-10T11:01:22.688Z,5096.00
2018-12-10T11:02:22.655Z,4984.00
2018-12-10T11:03:22.623Z,6644.00
2018-12-10T11:04:22.587Z,6792.00
2018-12-10T11:05:22.554Z,7632.00
2018-12-10T11:06:22.521Z,8988.00
2018-12-10T11:07:22.485Z,11164.00
2018-12-10T11:08:22.451Z,13396.00
2018-12-10T11:09:22.419Z,13080.00
2018-12-10T11:10:22.384Z,11244.00
2018-12-10T11:11:22.350Z,9916.00
2018-12-10T11:12:22.315Z,9360.00
2018-12-10T11:13:22.280Z,9464.00
2018-12-10T11:14:22.248Z,9408.00
2018-12-10T11:15:22.213Z,9068.00
2018-12-10T11:16:22.177Z,9648.00
2018-12-10T11:17:22.146Z,11796.00
2018-12-10T11:18:22.111Z,12132.00
2018-12-10T11:19:22.075Z,10320.00
2018-12-10T11:20:22.043Z,9572.00
2018-12-10T11:21:22.008Z,9356.00
2018-12-10T11:22:21.974Z,8012.00
2018-12-10T11:23:21.940Z,8360.00
2018-12-10T11:24:21.908Z,10324.00
2018-12-10T11:25:21.886Z,10360.00
2018-12-10T11:26:21.841Z,9764.00
2018-12-10T11:27:21.810Z,8948.00
2018-12-10T11:28:21.772Z,10232.00
2018-12-10T11:29:21.738Z,12128.00
2018-12-10T11:30:21.705Z,10500.00
2018-12-10T11:31:21.670Z,9052.00
2018-12-10T11:32:21.638Z,8312.00
2018-12-10T11:33:21.604Z,8628.00
2018-12-10T11:34:21.569Z,10616.00
2018-12-10T11:35:21.537Z,11512.00
2018-12-10T11:36:21.504Z,11964.00
2018-12-10T11:37:21.470Z,11724.00
2018-12-10T11:38:21.435Z,12916.00
2018-12-10T11:39:21.402Z,13176.00
2018-12-10T11:40:21.369Z,12576.00
2018-12-10T11:41:21.334Z,10816.00
2018-12-10T11:42:21.302Z,9340.00
2018-12-10T11:43:21.267Z,9280.00
2018-12-10T11:44:21.236Z,10640.00
2018-12-10T11:45:21.201Z,15128.00
2018-12-10T11:46:21.168Z,14180.00
2018-12-10T11:47:21.135Z,12044.00
2018-12-10T11:48:21.101Z,12360.00
2018-12-10T11:49:21.067Z,8480.00
2018-12-10T11:50:21.063Z,8220.00
2018-12-10T11:51:21.000Z,7508.00
2018-12-10T11:52:20.967Z,8176.00
2018-12-10T11:53:20.934Z,8976.00
2018-12-10T11:54:20.901Z,9384.00
2018-12-10T11:55:20.866Z,8392.00
2018-12-10T11:56:20.834Z,7628.00
2018-12-10T11:57:20.800Z,7000.00
2018-12-10T11:58:20.769Z,6816.00
2018-12-10T11:59:20.733Z,6608.00
2018-12-10T12:00:20.701Z,7300.00
2018-12-10T12:01:20.669Z,7224.00
2018-12-10T12:02:20.634Z,7380.00
2018-12-10T12:03:20.598Z,6720.00
2018-12-10T12:04:20.566Z,5644.00
2018-12-10T12:05:20.532Z,5808.00
2018-12-10T12:06:20.502Z,7372.00
2018-12-10T12:07:20.465Z,11180.00
2018-12-10T12:08:20.429Z,13980.00
2018-12-10T12:09:20.396Z,14548.00
2018-12-10T12:10:20.362Z,15120.00
2018-12-10T12:11:20.332Z,15600.00
2018-12-10T12:12:20.295Z,11364.00
2018-12-10T12:13:20.262Z,8136.00
2018-12-10T12:14:20.227Z,7544.00
2018-12-10T12:15:20.194Z,8484.00
2018-12-10T12:16:20.161Z,9252.00
2018-12-10T12:17:20.126Z,7564.00
2018-12-10T12:18:20.093Z,6484.00
2018-12-10T12:19:20.059Z,5924.00
2018-12-10T12:20:20.026Z,5584.00
2018-12-10T12:21:19.993Z,5652.00
2018-12-10T12:22:19.957Z,5388.00
2018-12-10T12:23:19.923Z,5228.00
2018-12-10T12:24:19.889Z,5052.00
2018-12-10T12:25:19.856Z,4996.00
2018-12-10T12:26:19.822Z,4964.00
2018-12-10T12:27:19.787Z,8468.00
2018-12-10T12:28:19.754Z,8392.00
2018-12-10T12:29:19.720Z,8388.00
2018-12-10T12:30:19.687Z,8144.00
2018-12-10T12:31:19.651Z,5480.00
2018-12-10T12:32:19.618Z,5416.00
2018-12-10T12:33:19.584Z,6768.00
2018-12-10T12:34:19.549Z,7844.00
2018-12-10T12:35:19.515Z,5516.00
2018-12-10T12:36:19.481Z,5424.00
2018-12-10T12:37:19.447Z,5836.00
2018-12-10T12:38:19.413Z,8196.00
2018-12-10T12:39:19.379Z,10088.00
2018-12-10T12:40:19.345Z,9396.00
2018-12-10T12:41:19.311Z,6496.00
2018-12-10T12:42:19.278Z,8248.00